sensor_id;sensor_type;location;lat;lon;timestamp;P1;durP1;ratioP1;P2;durP2;ratioP2
37299;SDS011;23184;51.902;12.836;2023-02-16T00:01:35;21.00;;;10.77;;
37299;SDS011;23184;51.902;12.836;2023-02-16T00:04:01;20.92;;;11.15;;
37299;SDS011;23184;51.902;12.836;2023-02-16T00:06:39;22.75;;;12.25;;
37299;SDS011;23184;51.902;12.836;2023-02-16T00:09:05;20.33;;;11.55;;
37299;SDS011;23184;51.902;12.836;2023-02-16T00:11:31;30.13;;;14.02;;
37299;SDS011;23184;51.902;12.836;2023-02-16T00:14:17;23.08;;;12.70;;
37299;SDS011;23184;51.902;12.836;2023-02-16T00:16:46;25.45;;;12.88;;
37299;SDS011;23184;51.902;12.836;2023-02-16T00:19:25;25.23;;;12.40;;
37299;SDS011;23184;51.902;12.836;2023-02-16T00:21:53;26.02;;;13.10;;
37299;SDS011;23184;51.902;12.836;2023-02-16T00:24:20;22.00;;;11.50;;
37299;SDS011;23184;51.902;12.836;2023-02-16T00:26:46;21.50;;;12.95;;
37299;SDS011;23184;51.902;12.836;2023-02-16T00:29:20;23.27;;;12.95;;
37299;SDS011;23184;51.902;12.836;2023-02-16T00:31:49;25.75;;;13.32;;
37299;SDS011;23184;51.902;12.836;2023-02-16T00:34:23;24.08;;;12.63;;
37299;SDS011;23184;51.902;12.836;2023-02-16T00:36:55;26.55;;;13.18;;
37299;SDS011;23184;51.902;12.836;2023-02-16T00:39:22;26.15;;;13.13;;
37299;SDS011;23184;51.902;12.836;2023-02-16T00:41:49;24.70;;;12.85;;
37299;SDS011;23184;51.902;12.836;2023-02-16T00:44:27;21.67;;;11.82;;
37299;SDS011;23184;51.902;12.836;2023-02-16T00:47:15;24.65;;;11.98;;
37299;SDS011;23184;51.902;12.836;2023-02-16T00:49:47;24.42;;;11.65;;
37299;SDS011;23184;51.902;12.836;2023-02-16T00:52:26;22.83;;;12.15;;
37299;SDS011;23184;51.902;12.836;2023-02-16T00:54:58;25.17;;;12.38;;
37299;SDS011;23184;51.902;12.836;2023-02-16T00:57:25;21.35;;;11.05;;
37299;SDS011;23184;51.902;12.836;2023-02-16T01:00:05;21.80;;;11.95;;
37299;SDS011;23184;51.902;12.836;2023-02-16T01:02:32;25.75;;;13.13;;
37299;SDS011;23184;51.902;12.836;2023-02-16T01:04:57;20.35;;;11.25;;
37299;SDS011;23184;51.902;12.836;2023-02-16T01:07:23;22.67;;;12.13;;
37299;SDS011;23184;51.902;12.836;2023-02-16T01:10:07;22.55;;;12.55;;
37299;SDS011;23184;51.902;12.836;2023-02-16T01:12:52;20.38;;;11.32;;
37299;SDS011;23184;51.902;12.836;2023-02-16T01:15:18;21.88;;;11.48;;
37299;SDS011;23184;51.902;12.836;2023-02-16T01:17:48;24.05;;;12.63;;
37299;SDS011;23184;51.902;12.836;2023-02-16T01:20:17;23.48;;;12.30;;
37299;SDS011;23184;51.902;12.836;2023-02-16T01:22:44;20.85;;;10.73;;
37299;SDS011;23184;51.902;12.836;2023-02-16T01:25:10;25.98;;;12.77;;
37299;SDS011;23184;51.902;12.836;2023-02-16T01:27:36;23.42;;;11.75;;
37299;SDS011;23184;51.902;12.836;2023-02-16T01:30:03;22.23;;;12.23;;
37299;SDS011;23184;51.902;12.836;2023-02-16T01:32:30;22.05;;;11.70;;
37299;SDS011;23184;51.902;12.836;2023-02-16T01:34:56;20.17;;;10.95;;
37299;SDS011;23184;51.902;12.836;2023-02-16T01:37:21;23.67;;;11.38;;
37299;SDS011;23184;51.902;12.836;2023-02-16T01:39:47;21.02;;;11.32;;
37299;SDS011;23184;51.902;12.836;2023-02-16T01:44:58;24.13;;;12.38;;
37299;SDS011;23184;51.902;12.836;2023-02-16T01:50:06;26.33;;;12.23;;
37299;SDS011;23184;51.902;12.836;2023-02-16T01:52:43;26.40;;;12.15;;
37299;SDS011;23184;51.902;12.836;2023-02-16T01:55:25;25.98;;;12.68;;
37299;SDS011;23184;51.902;12.836;2023-02-16T01:57:59;25.63;;;13.02;;
37299;SDS011;23184;51.902;12.836;2023-02-16T02:03:15;24.80;;;12.30;;
37299;SDS011;23184;51.902;12.836;2023-02-16T02:06:02;32.40;;;13.23;;
37299;SDS011;23184;51.902;12.836;2023-02-16T02:08:33;23.30;;;11.50;;
37299;SDS011;23184;51.902;12.836;2023-02-16T02:11:11;26.90;;;11.95;;
37299;SDS011;23184;51.902;12.836;2023-02-16T02:16:18;23.48;;;12.35;;
37299;SDS011;23184;51.902;12.836;2023-02-16T02:18:46;25.13;;;12.60;;
37299;SDS011;23184;51.902;12.836;2023-02-16T02:26:52;27.95;;;13.27;;
37299;SDS011;23184;51.902;12.836;2023-02-16T02:29:55;26.35;;;14.20;;
37299;SDS011;23184;51.902;12.836;2023-02-16T02:33:06;26.77;;;12.45;;
37299;SDS011;23184;51.902;12.836;2023-02-16T02:35:48;26.92;;;12.73;;
37299;SDS011;23184;51.902;12.836;2023-02-16T02:38:26;28.20;;;13.02;;
37299;SDS011;23184;51.902;12.836;2023-02-16T02:46:57;26.75;;;12.10;;
37299;SDS011;23184;51.902;12.836;2023-02-16T02:49:23;25.55;;;12.35;;
37299;SDS011;23184;51.902;12.836;2023-02-16T02:51:49;24.15;;;12.70;;
37299;SDS011;23184;51.902;12.836;2023-02-16T02:54:16;26.65;;;13.20;;
37299;SDS011;23184;51.902;12.836;2023-02-16T02:57:07;25.98;;;13.18;;
37299;SDS011;23184;51.902;12.836;2023-02-16T03:00:09;27.70;;;12.95;;
37299;SDS011;23184;51.902;12.836;2023-02-16T03:02:57;30.75;;;13.45;;
37299;SDS011;23184;51.902;12.836;2023-02-16T03:05:36;26.00;;;12.75;;
37299;SDS011;23184;51.902;12.836;2023-02-16T03:08:06;27.33;;;13.95;;
37299;SDS011;23184;51.902;12.836;2023-02-16T03:10:42;29.83;;;13.55;;
37299;SDS011;23184;51.902;12.836;2023-02-16T03:13:35;29.13;;;13.93;;
37299;SDS011;23184;51.902;12.836;2023-02-16T03:16:09;31.98;;;14.60;;
37299;SDS011;23184;51.902;12.836;2023-02-16T03:18:41;23.63;;;13.43;;
37299;SDS011;23184;51.902;12.836;2023-02-16T03:21:26;31.40;;;13.10;;
37299;SDS011;23184;51.902;12.836;2023-02-16T03:24:13;30.35;;;14.60;;
37299;SDS011;23184;51.902;12.836;2023-02-16T03:27:01;29.75;;;14.75;;
37299;SDS011;23184;51.902;12.836;2023-02-16T03:29:46;29.45;;;13.63;;
37299;SDS011;23184;51.902;12.836;2023-02-16T03:32:15;31.00;;;14.02;;
37299;SDS011;23184;51.902;12.836;2023-02-16T03:34:40;31.58;;;14.95;;
37299;SDS011;23184;51.902;12.836;2023-02-16T03:37:06;27.95;;;13.32;;
37299;SDS011;23184;51.902;12.836;2023-02-16T03:39:32;27.67;;;13.93;;
37299;SDS011;23184;51.902;12.836;2023-02-16T03:42:18;29.80;;;14.30;;
37299;SDS011;23184;51.902;12.836;2023-02-16T03:44:45;31.48;;;14.00;;
37299;SDS011;23184;51.902;12.836;2023-02-16T03:47:11;30.15;;;14.32;;
37299;SDS011;23184;51.902;12.836;2023-02-16T03:49:36;30.73;;;13.32;;
37299;SDS011;23184;51.902;12.836;2023-02-16T03:52:02;31.40;;;14.77;;
37299;SDS011;23184;51.902;12.836;2023-02-16T03:54:27;30.30;;;13.68;;
37299;SDS011;23184;51.902;12.836;2023-02-16T03:56:53;32.83;;;14.52;;
37299;SDS011;23184;51.902;12.836;2023-02-16T03:59:18;31.02;;;14.40;;
37299;SDS011;23184;51.902;12.836;2023-02-16T04:01:44;28.23;;;13.98;;
37299;SDS011;23184;51.902;12.836;2023-02-16T04:04:09;28.23;;;13.82;;
37299;SDS011;23184;51.902;12.836;2023-02-16T04:06:35;33.70;;;14.15;;
37299;SDS011;23184;51.902;12.836;2023-02-16T04:09:00;32.70;;;14.15;;
37299;SDS011;23184;51.902;12.836;2023-02-16T04:11:26;33.08;;;14.27;;
37299;SDS011;23184;51.902;12.836;2023-02-16T04:14:10;31.58;;;14.57;;
37299;SDS011;23184;51.902;12.836;2023-02-16T04:16:35;29.02;;;14.77;;
37299;SDS011;23184;51.902;12.836;2023-02-16T04:19:01;30.30;;;14.50;;
37299;SDS011;23184;51.902;12.836;2023-02-16T04:21:26;32.30;;;14.82;;
37299;SDS011;23184;51.902;12.836;2023-02-16T04:23:52;32.22;;;14.27;;
37299;SDS011;23184;51.902;12.836;2023-02-16T04:26:17;31.80;;;15.43;;
37299;SDS011;23184;51.902;12.836;2023-02-16T04:28:43;29.98;;;15.45;;
37299;SDS011;23184;51.902;12.836;2023-02-16T04:31:08;31.52;;;14.65;;
37299;SDS011;23184;51.902;12.836;2023-02-16T04:33:34;35.47;;;15.25;;
37299;SDS011;23184;51.902;12.836;2023-02-16T04:35:59;37.28;;;15.40;;
37299;SDS011;23184;51.902;12.836;2023-02-16T04:38:25;34.17;;;15.18;;
37299;SDS011;23184;51.902;12.836;2023-02-16T04:40:50;33.20;;;15.85;;
37299;SDS011;23184;51.902;12.836;2023-02-16T04:43:15;40.78;;;16.75;;
37299;SDS011;23184;51.902;12.836;2023-02-16T04:45:41;34.95;;;17.15;;
37299;SDS011;23184;51.902;12.836;2023-02-16T04:48:06;35.08;;;16.35;;
37299;SDS011;23184;51.902;12.836;2023-02-16T04:50:32;31.73;;;16.60;;
37299;SDS011;23184;51.902;12.836;2023-02-16T04:52:57;37.05;;;16.73;;
37299;SDS011;23184;51.902;12.836;2023-02-16T04:55:23;36.20;;;17.10;;
37299;SDS011;23184;51.902;12.836;2023-02-16T04:57:49;36.88;;;17.42;;
37299;SDS011;23184;51.902;12.836;2023-02-16T05:00:15;36.20;;;17.02;;
37299;SDS011;23184;51.902;12.836;2023-02-16T05:02:40;35.58;;;18.45;;
37299;SDS011;23184;51.902;12.836;2023-02-16T05:05:06;40.65;;;17.77;;
37299;SDS011;23184;51.902;12.836;2023-02-16T05:07:32;40.58;;;17.60;;
37299;SDS011;23184;51.902;12.836;2023-02-16T05:09:57;38.55;;;18.10;;
37299;SDS011;23184;51.902;12.836;2023-02-16T05:12:23;41.05;;;17.83;;
37299;SDS011;23184;51.902;12.836;2023-02-16T05:15:07;41.03;;;18.85;;
37299;SDS011;23184;51.902;12.836;2023-02-16T05:17:33;39.30;;;18.33;;
37299;SDS011;23184;51.902;12.836;2023-02-16T05:19:58;35.92;;;16.88;;
37299;SDS011;23184;51.902;12.836;2023-02-16T05:22:25;36.13;;;17.35;;
37299;SDS011;23184;51.902;12.836;2023-02-16T05:24:52;38.03;;;17.55;;
37299;SDS011;23184;51.902;12.836;2023-02-16T05:27:22;41.38;;;18.00;;
37299;SDS011;23184;51.902;12.836;2023-02-16T05:29:49;38.78;;;18.38;;
37299;SDS011;23184;51.902;12.836;2023-02-16T05:32:15;31.50;;;15.68;;
37299;SDS011;23184;51.902;12.836;2023-02-16T05:34:41;32.25;;;15.88;;
37299;SDS011;23184;51.902;12.836;2023-02-16T05:37:08;39.65;;;16.60;;
37299;SDS011;23184;51.902;12.836;2023-02-16T05:39:34;38.42;;;17.08;;
37299;SDS011;23184;51.902;12.836;2023-02-16T05:41:59;42.08;;;18.75;;
37299;SDS011;23184;51.902;12.836;2023-02-16T05:44:25;42.22;;;19.42;;
37299;SDS011;23184;51.902;12.836;2023-02-16T05:46:51;42.70;;;19.38;;
37299;SDS011;23184;51.902;12.836;2023-02-16T05:49:16;43.17;;;19.70;;
37299;SDS011;23184;51.902;12.836;2023-02-16T05:51:42;34.78;;;17.42;;
37299;SDS011;23184;51.902;12.836;2023-02-16T05:54:08;45.63;;;19.55;;
37299;SDS011;23184;51.902;12.836;2023-02-16T05:56:41;38.65;;;16.65;;
37299;SDS011;23184;51.902;12.836;2023-02-16T05:59:08;51.75;;;24.00;;
37299;SDS011;23184;51.902;12.836;2023-02-16T06:01:34;52.35;;;22.77;;
37299;SDS011;23184;51.902;12.836;2023-02-16T06:03:59;51.83;;;22.63;;
37299;SDS011;23184;51.902;12.836;2023-02-16T06:06:24;53.05;;;23.98;;
37299;SDS011;23184;51.902;12.836;2023-02-16T06:08:50;45.88;;;21.15;;
37299;SDS011;23184;51.902;12.836;2023-02-16T06:11:16;48.45;;;20.63;;
37299;SDS011;23184;51.902;12.836;2023-02-16T06:13:59;45.47;;;19.83;;
37299;SDS011;23184;51.902;12.836;2023-02-16T06:16:28;47.72;;;20.33;;
37299;SDS011;23184;51.902;12.836;2023-02-16T06:18:55;45.20;;;19.83;;
37299;SDS011;23184;51.902;12.836;2023-02-16T06:21:21;48.88;;;21.90;;
37299;SDS011;23184;51.902;12.836;2023-02-16T06:23:47;46.97;;;20.02;;
37299;SDS011;23184;51.902;12.836;2023-02-16T06:26:13;49.25;;;21.83;;
37299;SDS011;23184;51.902;12.836;2023-02-16T06:28:40;48.85;;;22.58;;
37299;SDS011;23184;51.902;12.836;2023-02-16T06:31:05;53.30;;;22.80;;
37299;SDS011;23184;51.902;12.836;2023-02-16T06:33:31;57.15;;;23.00;;
37299;SDS011;23184;51.902;12.836;2023-02-16T06:35:57;48.25;;;21.45;;
37299;SDS011;23184;51.902;12.836;2023-02-16T06:38:22;49.50;;;21.15;;
37299;SDS011;23184;51.902;12.836;2023-02-16T06:40:50;46.67;;;20.90;;
37299;SDS011;23184;51.902;12.836;2023-02-16T06:43:16;50.80;;;22.10;;
37299;SDS011;23184;51.902;12.836;2023-02-16T06:45:42;49.08;;;22.73;;
37299;SDS011;23184;51.902;12.836;2023-02-16T06:48:07;51.88;;;22.73;;
37299;SDS011;23184;51.902;12.836;2023-02-16T06:50:33;47.85;;;22.08;;
37299;SDS011;23184;51.902;12.836;2023-02-16T06:52:59;51.60;;;23.20;;
37299;SDS011;23184;51.902;12.836;2023-02-16T06:55:24;61.35;;;21.98;;
37299;SDS011;23184;51.902;12.836;2023-02-16T06:57:50;47.17;;;20.73;;
37299;SDS011;23184;51.902;12.836;2023-02-16T07:00:15;48.85;;;21.88;;
37299;SDS011;23184;51.902;12.836;2023-02-16T07:02:41;43.95;;;20.08;;
37299;SDS011;23184;51.902;12.836;2023-02-16T07:05:07;46.85;;;20.73;;
37299;SDS011;23184;51.902;12.836;2023-02-16T07:07:34;49.55;;;22.40;;
37299;SDS011;23184;51.902;12.836;2023-02-16T07:09:59;50.55;;;22.52;;
37299;SDS011;23184;51.902;12.836;2023-02-16T07:12:26;45.50;;;20.50;;
37299;SDS011;23184;51.902;12.836;2023-02-16T07:14:52;44.95;;;20.75;;
37299;SDS011;23184;51.902;12.836;2023-02-16T07:17:17;45.35;;;20.70;;
37299;SDS011;23184;51.902;12.836;2023-02-16T07:19:43;48.25;;;20.60;;
37299;SDS011;23184;51.902;12.836;2023-02-16T07:22:08;46.20;;;21.05;;
37299;SDS011;23184;51.902;12.836;2023-02-16T07:24:34;50.55;;;21.52;;
37299;SDS011;23184;51.902;12.836;2023-02-16T07:26:59;51.05;;;23.30;;
37299;SDS011;23184;51.902;12.836;2023-02-16T07:29:25;46.78;;;21.67;;
37299;SDS011;23184;51.902;12.836;2023-02-16T07:31:50;46.75;;;23.13;;
37299;SDS011;23184;51.902;12.836;2023-02-16T07:34:17;47.92;;;20.70;;
37299;SDS011;23184;51.902;12.836;2023-02-16T07:36:42;55.38;;;21.70;;
37299;SDS011;23184;51.902;12.836;2023-02-16T07:39:09;44.58;;;21.60;;
37299;SDS011;23184;51.902;12.836;2023-02-16T07:41:35;51.00;;;22.10;;
37299;SDS011;23184;51.902;12.836;2023-02-16T07:44:00;53.78;;;24.00;;
37299;SDS011;23184;51.902;12.836;2023-02-16T07:46:25;48.45;;;21.90;;
37299;SDS011;23184;51.902;12.836;2023-02-16T07:48:51;43.67;;;20.65;;
37299;SDS011;23184;51.902;12.836;2023-02-16T07:51:20;41.00;;;19.73;;
37299;SDS011;23184;51.902;12.836;2023-02-16T07:53:51;48.75;;;21.52;;
37299;SDS011;23184;51.902;12.836;2023-02-16T07:56:18;46.15;;;20.75;;
37299;SDS011;23184;51.902;12.836;2023-02-16T07:58:49;42.88;;;19.73;;
37299;SDS011;23184;51.902;12.836;2023-02-16T08:01:18;41.63;;;20.75;;
37299;SDS011;23184;51.902;12.836;2023-02-16T08:03:44;43.00;;;20.25;;
37299;SDS011;23184;51.902;12.836;2023-02-16T08:06:09;41.95;;;20.63;;
37299;SDS011;23184;51.902;12.836;2023-02-16T08:08:35;41.97;;;20.73;;
37299;SDS011;23184;51.902;12.836;2023-02-16T08:11:12;45.40;;;20.90;;
37299;SDS011;23184;51.902;12.836;2023-02-16T08:13:40;45.35;;;22.15;;
37299;SDS011;23184;51.902;12.836;2023-02-16T08:16:09;42.05;;;20.15;;
37299;SDS011;23184;51.902;12.836;2023-02-16T08:18:36;44.00;;;21.02;;
37299;SDS011;23184;51.902;12.836;2023-02-16T08:21:25;44.13;;;20.83;;
37299;SDS011;23184;51.902;12.836;2023-02-16T08:23:53;45.88;;;21.23;;
37299;SDS011;23184;51.902;12.836;2023-02-16T08:26:21;43.15;;;20.48;;
37299;SDS011;23184;51.902;12.836;2023-02-16T08:28:49;44.92;;;20.55;;
37299;SDS011;23184;51.902;12.836;2023-02-16T08:31:15;45.15;;;21.15;;
37299;SDS011;23184;51.902;12.836;2023-02-16T08:33:43;51.78;;;22.27;;
37299;SDS011;23184;51.902;12.836;2023-02-16T08:36:22;44.13;;;20.70;;
37299;SDS011;23184;51.902;12.836;2023-02-16T08:38:49;48.75;;;24.08;;
37299;SDS011;23184;51.902;12.836;2023-02-16T08:41:16;48.13;;;22.38;;
37299;SDS011;23184;51.902;12.836;2023-02-16T08:43:43;53.35;;;25.15;;
37299;SDS011;23184;51.902;12.836;2023-02-16T08:46:09;50.35;;;23.88;;
37299;SDS011;23184;51.902;12.836;2023-02-16T08:48:35;54.88;;;24.90;;
37299;SDS011;23184;51.902;12.836;2023-02-16T08:51:01;51.10;;;24.83;;
37299;SDS011;23184;51.902;12.836;2023-02-16T08:53:27;48.70;;;23.88;;
37299;SDS011;23184;51.902;12.836;2023-02-16T08:55:57;51.28;;;22.75;;
37299;SDS011;23184;51.902;12.836;2023-02-16T08:58:23;44.13;;;21.40;;
37299;SDS011;23184;51.902;12.836;2023-02-16T09:00:50;42.92;;;20.88;;
37299;SDS011;23184;51.902;12.836;2023-02-16T09:03:16;40.00;;;21.17;;
37299;SDS011;23184;51.902;12.836;2023-02-16T09:05:43;48.75;;;24.98;;
37299;SDS011;23184;51.902;12.836;2023-02-16T09:08:09;57.08;;;29.58;;
37299;SDS011;23184;51.902;12.836;2023-02-16T09:10:35;43.70;;;23.58;;
37299;SDS011;23184;51.902;12.836;2023-02-16T09:13:00;40.35;;;21.70;;
37299;SDS011;23184;51.902;12.836;2023-02-16T09:15:27;48.17;;;26.00;;
37299;SDS011;23184;51.902;12.836;2023-02-16T09:17:53;45.97;;;23.30;;
37299;SDS011;23184;51.902;12.836;2023-02-16T09:20:18;43.88;;;23.60;;
37299;SDS011;23184;51.902;12.836;2023-02-16T09:22:44;45.38;;;23.83;;
37299;SDS011;23184;51.902;12.836;2023-02-16T09:25:13;42.50;;;22.55;;
37299;SDS011;23184;51.902;12.836;2023-02-16T09:27:39;48.10;;;25.23;;
37299;SDS011;23184;51.902;12.836;2023-02-16T09:30:05;48.83;;;24.35;;
37299;SDS011;23184;51.902;12.836;2023-02-16T09:32:33;42.03;;;22.90;;
37299;SDS011;23184;51.902;12.836;2023-02-16T09:34:59;43.92;;;23.50;;
37299;SDS011;23184;51.902;12.836;2023-02-16T09:37:24;44.75;;;23.70;;
37299;SDS011;23184;51.902;12.836;2023-02-16T09:39:50;45.00;;;22.88;;
37299;SDS011;23184;51.902;12.836;2023-02-16T09:42:24;45.42;;;24.10;;
37299;SDS011;23184;51.902;12.836;2023-02-16T09:45:00;42.55;;;23.65;;
37299;SDS011;23184;51.902;12.836;2023-02-16T09:47:29;40.08;;;22.75;;
37299;SDS011;23184;51.902;12.836;2023-02-16T09:49:58;44.42;;;24.45;;
37299;SDS011;23184;51.902;12.836;2023-02-16T09:52:38;41.72;;;22.75;;
37299;SDS011;23184;51.902;12.836;2023-02-16T09:55:06;40.15;;;22.90;;
37299;SDS011;23184;51.902;12.836;2023-02-16T10:03:03;42.15;;;24.52;;
37299;SDS011;23184;51.902;12.836;2023-02-16T10:05:44;42.30;;;24.40;;
37299;SDS011;23184;51.902;12.836;2023-02-16T10:08:45;43.33;;;23.50;;
37299;SDS011;23184;51.902;12.836;2023-02-16T10:11:30;46.88;;;23.92;;
37299;SDS011;23184;51.902;12.836;2023-02-16T10:14:17;42.25;;;23.23;;
37299;SDS011;23184;51.902;12.836;2023-02-16T10:16:51;43.60;;;24.90;;
37299;SDS011;23184;51.902;12.836;2023-02-16T10:19:21;40.78;;;23.80;;
37299;SDS011;23184;51.902;12.836;2023-02-16T10:21:53;38.50;;;21.30;;
37299;SDS011;23184;51.902;12.836;2023-02-16T10:24:22;42.75;;;23.80;;
37299;SDS011;23184;51.902;12.836;2023-02-16T10:26:57;41.13;;;23.17;;
37299;SDS011;23184;51.902;12.836;2023-02-16T10:29:29;43.63;;;24.00;;
37299;SDS011;23184;51.902;12.836;2023-02-16T10:42:51;44.58;;;23.25;;
37299;SDS011;23184;51.902;12.836;2023-02-16T10:45:30;42.03;;;22.20;;
37299;SDS011;23184;51.902;12.836;2023-02-16T10:48:00;43.67;;;23.98;;
37299;SDS011;23184;51.902;12.836;2023-02-16T10:50:29;44.20;;;24.30;;
37299;SDS011;23184;51.902;12.836;2023-02-16T10:53:20;44.35;;;22.65;;
37299;SDS011;23184;51.902;12.836;2023-02-16T10:55:57;48.50;;;23.58;;
37299;SDS011;23184;51.902;12.836;2023-02-16T10:58:24;43.00;;;23.70;;
37299;SDS011;23184;51.902;12.836;2023-02-16T11:01:00;42.30;;;22.27;;
37299;SDS011;23184;51.902;12.836;2023-02-16T11:03:34;39.63;;;21.83;;
37299;SDS011;23184;51.902;12.836;2023-02-16T11:06:13;43.83;;;22.65;;
37299;SDS011;23184;51.902;12.836;2023-02-16T11:08:51;43.13;;;23.35;;
37299;SDS011;23184;51.902;12.836;2023-02-16T11:11:20;41.55;;;22.58;;
37299;SDS011;23184;51.902;12.836;2023-02-16T11:13:48;42.72;;;21.10;;
37299;SDS011;23184;51.902;12.836;2023-02-16T11:16:21;46.22;;;24.63;;
37299;SDS011;23184;51.902;12.836;2023-02-16T11:18:54;44.60;;;25.02;;
37299;SDS011;23184;51.902;12.836;2023-02-16T11:21:40;43.53;;;22.30;;
37299;SDS011;23184;51.902;12.836;2023-02-16T11:24:27;42.70;;;22.95;;
37299;SDS011;23184;51.902;12.836;2023-02-16T11:29:41;40.20;;;21.75;;
37299;SDS011;23184;51.902;12.836;2023-02-16T11:32:07;41.47;;;22.25;;
37299;SDS011;23184;51.902;12.836;2023-02-16T11:34:35;40.35;;;20.85;;
37299;SDS011;23184;51.902;12.836;2023-02-16T11:37:13;42.33;;;23.95;;
37299;SDS011;23184;51.902;12.836;2023-02-16T11:39:47;38.67;;;20.42;;
37299;SDS011;23184;51.902;12.836;2023-02-16T11:42:34;36.70;;;19.63;;
37299;SDS011;23184;51.902;12.836;2023-02-16T11:45:04;39.72;;;21.55;;
37299;SDS011;23184;51.902;12.836;2023-02-16T11:47:33;40.30;;;20.50;;
37299;SDS011;23184;51.902;12.836;2023-02-16T11:50:18;36.78;;;21.50;;
37299;SDS011;23184;51.902;12.836;2023-02-16T11:52:47;37.88;;;21.08;;
37299;SDS011;23184;51.902;12.836;2023-02-16T11:55:23;38.78;;;20.75;;
37299;SDS011;23184;51.902;12.836;2023-02-16T11:57:51;38.58;;;20.65;;
37299;SDS011;23184;51.902;12.836;2023-02-16T12:00:18;38.65;;;21.95;;
37299;SDS011;23184;51.902;12.836;2023-02-16T12:02:58;34.88;;;20.52;;
37299;SDS011;23184;51.902;12.836;2023-02-16T12:05:55;40.90;;;20.70;;
37299;SDS011;23184;51.902;12.836;2023-02-16T12:16:53;39.20;;;19.27;;
37299;SDS011;23184;51.902;12.836;2023-02-16T12:19:35;42.47;;;22.55;;
37299;SDS011;23184;51.902;12.836;2023-02-16T12:27:29;37.85;;;20.02;;
37299;SDS011;23184;51.902;12.836;2023-02-16T12:29:59;36.95;;;18.83;;
37299;SDS011;23184;51.902;12.836;2023-02-16T12:33:02;33.05;;;19.52;;
37299;SDS011;23184;51.902;12.836;2023-02-16T12:44:09;35.35;;;20.88;;
37299;SDS011;23184;51.902;12.836;2023-02-16T12:46:43;35.28;;;20.25;;
37299;SDS011;23184;51.902;12.836;2023-02-16T12:49:13;36.92;;;20.20;;
37299;SDS011;23184;51.902;12.836;2023-02-16T12:51:52;34.72;;;19.27;;
37299;SDS011;23184;51.902;12.836;2023-02-16T12:54:29;35.83;;;19.70;;
37299;SDS011;23184;51.902;12.836;2023-02-16T12:57:02;36.00;;;18.52;;
37299;SDS011;23184;51.902;12.836;2023-02-16T12:59:37;32.95;;;19.33;;
37299;SDS011;23184;51.902;12.836;2023-02-16T13:05:24;34.05;;;18.42;;
37299;SDS011;23184;51.902;12.836;2023-02-16T13:07:55;34.65;;;20.83;;
37299;SDS011;23184;51.902;12.836;2023-02-16T13:10:39;36.45;;;18.52;;
37299;SDS011;23184;51.902;12.836;2023-02-16T13:13:20;35.03;;;19.02;;
37299;SDS011;23184;51.902;12.836;2023-02-16T13:15:50;34.67;;;19.20;;
37299;SDS011;23184;51.902;12.836;2023-02-16T13:18:31;35.90;;;20.25;;
37299;SDS011;23184;51.902;12.836;2023-02-16T13:21:11;38.95;;;18.65;;
37299;SDS011;23184;51.902;12.836;2023-02-16T13:26:57;36.97;;;20.17;;
37299;SDS011;23184;51.902;12.836;2023-02-16T13:29:54;31.42;;;17.27;;
37299;SDS011;23184;51.902;12.836;2023-02-16T13:32:39;29.70;;;17.15;;
37299;SDS011;23184;51.902;12.836;2023-02-16T13:35:32;33.80;;;17.70;;
37299;SDS011;23184;51.902;12.836;2023-02-16T13:41:44;28.90;;;16.60;;
37299;SDS011;23184;51.902;12.836;2023-02-16T13:47:08;29.98;;;16.15;;
37299;SDS011;23184;51.902;12.836;2023-02-16T13:49:39;32.08;;;17.10;;
37299;SDS011;23184;51.902;12.836;2023-02-16T13:52:07;33.05;;;17.45;;
37299;SDS011;23184;51.902;12.836;2023-02-16T13:54:37;33.47;;;18.00;;
37299;SDS011;23184;51.902;12.836;2023-02-16T13:57:04;32.85;;;17.95;;
37299;SDS011;23184;51.902;12.836;2023-02-16T14:02:01;31.80;;;17.20;;
37299;SDS011;23184;51.902;12.836;2023-02-16T14:20:30;27.13;;;15.52;;
37299;SDS011;23184;51.902;12.836;2023-02-16T14:22:38;31.17;;;17.00;;
37299;SDS011;23184;51.902;12.836;2023-02-16T14:27:46;29.80;;;15.45;;
37299;SDS011;23184;51.902;12.836;2023-02-16T14:30:13;27.15;;;14.85;;
37299;SDS011;23184;51.902;12.836;2023-02-16T14:32:58;27.20;;;15.18;;
37299;SDS011;23184;51.902;12.836;2023-02-16T14:36:02;26.63;;;15.05;;
37299;SDS011;23184;51.902;12.836;2023-02-16T14:38:35;26.05;;;16.20;;
37299;SDS011;23184;51.902;12.836;2023-02-16T14:41:12;28.38;;;16.25;;
37299;SDS011;23184;51.902;12.836;2023-02-16T14:43:47;28.48;;;16.65;;
37299;SDS011;23184;51.902;12.836;2023-02-16T14:57:52;31.80;;;16.13;;
37299;SDS011;23184;51.902;12.836;2023-02-16T15:00:27;27.50;;;13.82;;
37299;SDS011;23184;51.902;12.836;2023-02-16T15:05:27;26.67;;;14.85;;
37299;SDS011;23184;51.902;12.836;2023-02-16T15:08:01;28.30;;;15.13;;
37299;SDS011;23184;51.902;12.836;2023-02-16T15:10:46;26.42;;;14.23;;
37299;SDS011;23184;51.902;12.836;2023-02-16T15:13:27;27.40;;;14.32;;
37299;SDS011;23184;51.902;12.836;2023-02-16T15:15:55;22.50;;;13.27;;
37299;SDS011;23184;51.902;12.836;2023-02-16T15:18:24;23.60;;;14.50;;
37299;SDS011;23184;51.902;12.836;2023-02-16T15:20:54;25.15;;;14.75;;
37299;SDS011;23184;51.902;12.836;2023-02-16T15:23:23;25.45;;;15.13;;
37299;SDS011;23184;51.902;12.836;2023-02-16T15:26:01;28.92;;;14.95;;
37299;SDS011;23184;51.902;12.836;2023-02-16T15:28:40;27.77;;;14.82;;
37299;SDS011;23184;51.902;12.836;2023-02-16T15:31:09;25.90;;;14.85;;
37299;SDS011;23184;51.902;12.836;2023-02-16T15:33:42;25.80;;;14.25;;
37299;SDS011;23184;51.902;12.836;2023-02-16T15:36:17;27.60;;;14.70;;
37299;SDS011;23184;51.902;12.836;2023-02-16T15:41:23;25.30;;;14.38;;
37299;SDS011;23184;51.902;12.836;2023-02-16T15:43:50;27.08;;;15.00;;
37299;SDS011;23184;51.902;12.836;2023-02-16T15:46:24;26.45;;;15.48;;
37299;SDS011;23184;51.902;12.836;2023-02-16T15:48:54;28.95;;;15.25;;
37299;SDS011;23184;51.902;12.836;2023-02-16T15:51:24;26.77;;;14.00;;
37299;SDS011;23184;51.902;12.836;2023-02-16T15:53:54;26.08;;;13.82;;
37299;SDS011;23184;51.902;12.836;2023-02-16T15:56:29;23.67;;;14.10;;
37299;SDS011;23184;51.902;12.836;2023-02-16T15:59:02;25.80;;;14.63;;
37299;SDS011;23184;51.902;12.836;2023-02-16T16:01:40;26.95;;;14.55;;
37299;SDS011;23184;51.902;12.836;2023-02-16T16:04:20;27.15;;;14.88;;
37299;SDS011;23184;51.902;12.836;2023-02-16T16:06:47;29.38;;;14.23;;
37299;SDS011;23184;51.902;12.836;2023-02-16T16:09:48;27.23;;;14.98;;
37299;SDS011;23184;51.902;12.836;2023-02-16T16:12:09;27.65;;;14.68;;
37299;SDS011;23184;51.902;12.836;2023-02-16T16:14:38;31.10;;;14.73;;
37299;SDS011;23184;51.902;12.836;2023-02-16T16:17:09;29.45;;;15.82;;
37299;SDS011;23184;51.902;12.836;2023-02-16T16:19:39;31.67;;;14.85;;
37299;SDS011;23184;51.902;12.836;2023-02-16T16:23:19;26.52;;;14.52;;
37299;SDS011;23184;51.902;12.836;2023-02-16T16:28:12;27.73;;;13.98;;
37299;SDS011;23184;51.902;12.836;2023-02-16T16:34:03;26.65;;;14.32;;